Terminal Aerodrome Forecast
Issued by NWS

Home | Current Version | Previous Version | Text Only | Print | Product List | Glossary Off
Versions: 1 2 3 4 5 6 7 8 9 10 11 12 13 14 15 16 17 18 19 20 21 22 23 24 25 26 27 28 29 30 31

000
FTUS43 KLOT 221914 AAB
TAFORD
TAF AMD
KORD 221914Z 2219/2324 19015G22KT 3SM -DZ BR BKN007 OVC012
     FM222100 19015G22KT 6SM BR BKN009 OVC012
     FM222300 16009KT P6SM VCSH OVC050
      TEMPO 2223/2302 3SM -SHRA BKN020
     FM230200 25010KT 5SM BR VCSH BKN018 OVC030
     FM231100 32015G22KT P6SM VCSH OVC020 PROB30 2311/2314 1SM -SN
      OVC007=

USA.gov is the U.S. government's official web portal to all federal, state and local government web resources and services.